Time;durP1;ratioP1;P1;durP2;ratioP2;P2;SDS_P1;SDS_P2;PMS_P1;PMS_P2;Temp;Humidity;BMP_temperature;BMP_pressure;BME280_temperature;BME280_humidity;BME280_pressure;Samples;Min_cycle;Max_cycle;Signal;HPM_P1;HPM_P2
2022/11/18 00:00:06;;;;;;;1.70;1.60;;;;;;;14.18;60.77;96940.56;7005244;28;20210;-80
2022/11/18 00:03:29;;;;;;;1.83;1.67;;;;;;;14.15;60.85;96938.41;7005179;28;20300;-80
2022/11/18 00:06:50;;;;;;;2.20;2.00;;;;;;;14.25;61.28;96953.88;7003995;28;20252;-80
2022/11/18 00:10:12;;;;;;;2.17;1.80;;;;;;;14.62;59.64;96948.94;6988502;28;20271;-81
2022/11/18 00:17:18;;;;;;;1.47;1.47;;;;;;;14.22;60.31;96935.44;6991069;28;20574;-81
2022/11/18 00:20:41;;;;;;;1.80;1.70;;;;;;;14.18;60.69;96951.41;7007588;28;20343;-81
2022/11/18 00:24:02;;;;;;;1.90;1.80;;;;;;;13.86;61.61;96950.06;7007274;28;20243;-81
2022/11/18 00:27:24;;;;;;;1.77;1.63;;;;;;;13.94;61.83;96955.75;7006302;28;20794;-81
2022/11/18 00:30:45;;;;;;;1.50;1.40;;;;;;;14.31;60.34;96944.63;7005184;28;20247;-81
2022/11/18 00:34:07;;;;;;;1.50;1.40;;;;;;;14.10;60.63;96924.06;7006768;28;20806;-80
2022/11/18 00:37:30;;;;;;;1.67;1.57;;;;;;;14.43;59.95;96959.53;7006117;28;20237;-81
2022/11/18 00:40:59;;;;;;;1.40;1.37;;;;;;;14.47;59.86;96947.06;7006998;28;20264;-82
2022/11/18 00:44:19;;;;;;;3.97;1.77;;;;;;;14.65;59.00;96957.31;7006071;28;20231;-81
2022/11/18 00:47:41;;;;;;;1.70;1.60;;;;;;;14.62;59.14;96952.44;7006189;28;20281;-81
2022/11/18 00:51:09;;;;;;;1.30;1.30;;;;;;;14.58;59.18;96956.00;7006565;28;20206;-81
2022/11/18 00:54:31;;;;;;;2.90;1.40;;;;;;;14.61;59.19;96950.81;7006164;28;20194;-81
2022/11/18 00:57:53;;;;;;;1.20;1.20;;;;;;;14.33;59.62;96958.75;7005566;28;20358;-80
2022/11/18 01:01:15;;;;;;;1.50;1.40;;;;;;;13.90;61.23;96956.56;7005034;28;20363;-81
2022/11/18 01:04:36;;;;;;;1.60;1.50;;;;;;;14.12;60.65;96968.75;7006536;28;20288;-81
2022/11/18 01:07:58;;;;;;;1.83;1.50;;;;;;;14.35;60.29;96968.25;7005077;28;20343;-81
2022/11/18 01:15:00;;;;;;;2.53;1.70;;;;;;;13.72;61.41;96979.56;7005505;28;20639;-82
2022/11/18 01:18:23;;;;;;;3.13;2.10;;;;;;;13.73;61.97;96956.81;7005505;28;20225;-81
2022/11/18 01:21:44;;;;;;;1.77;1.67;;;;;;;13.93;62.10;96983.91;7005973;28;20282;-82
2022/11/18 01:25:07;;;;;;;1.60;1.50;;;;;;;14.07;61.46;96970.66;7005553;28;20214;-81
2022/11/18 01:28:29;;;;;;;1.93;1.67;;;;;;;14.32;60.79;96970.66;7006651;28;20205;-81
2022/11/18 01:31:51;;;;;;;1.70;1.60;;;;;;;14.31;60.69;96975.28;7022349;28;20259;-81
2022/11/18 01:35:12;;;;;;;1.70;1.60;;;;;;;14.30;60.04;96981.78;7013429;28;20235;-81
2022/11/18 01:38:34;;;;;;;1.87;1.77;;;;;;;13.97;61.08;96970.63;7002178;28;20304;-80
2022/11/18 01:41:55;;;;;;;1.90;1.80;;;;;;;13.86;61.56;96964.41;7002405;28;20263;-81
2022/11/18 01:45:27;;;;;;;4.43;1.73;;;;;;;14.01;61.77;96986.09;7001681;28;20280;-80
2022/11/18 01:48:51;;;;;;;1.40;1.30;;;;;;;13.28;63.44;96980.28;7001482;28;20232;-80
2022/11/18 01:52:13;;;;;;;1.27;1.27;;;;;;;13.47;62.78;96992.25;7001577;28;20236;-80
2022/11/18 01:55:38;;;;;;;1.40;1.40;;;;;;;13.29;62.84;96998.94;7000702;28;20232;-80
2022/11/18 01:59:02;;;;;;;2.43;1.27;;;;;;;14.03;60.93;96996.66;7001360;28;20233;-80
2022/11/18 02:02:26;;;;;;;2.03;1.30;;;;;;;14.22;60.26;96998.59;7000742;28;20277;-80
2022/11/18 02:05:49;;;;;;;1.27;1.23;;;;;;;13.90;60.65;96984.47;7000482;28;20824;-80
2022/11/18 02:09:10;;;;;;;2.30;1.40;;;;;;;14.08;60.71;97007.50;6995626;28;20240;-80
2022/11/18 02:12:32;;;;;;;1.60;1.37;;;;;;;14.20;60.38;97002.66;7001505;28;20270;-80
2022/11/18 02:16:00;;;;;;;1.10;1.10;;;;;;;14.09;61.28;97014.56;7000626;28;20299;-80
2022/11/18 02:19:50;;;;;;;1.50;1.40;;;;;;;14.07;61.61;97012.13;7001345;28;20234;-80
2022/11/18 02:23:45;;;;;;;1.30;1.30;;;;;;;14.02;62.26;97022.94;7001424;28;20284;-80
2022/11/18 02:27:41;;;;;;;1.63;1.30;;;;;;;13.79;62.41;97020.75;6997566;28;20323;-80
2022/11/18 02:31:08;;;;;;;1.70;1.60;;;;;;;14.11;61.80;97026.72;7001245;28;20565;-80
2022/11/18 02:34:37;;;;;;;1.40;1.30;;;;;;;14.41;60.17;97021.38;7001252;28;20769;-79
2022/11/18 02:38:01;;;;;;;1.50;1.40;;;;;;;13.41;63.16;97025.81;7000634;28;20306;-80
2022/11/18 02:41:26;;;;;;;1.50;1.33;;;;;;;13.82;62.44;97017.53;7001442;28;20302;-80
2022/11/18 02:44:50;;;;;;;1.40;1.30;;;;;;;14.07;61.33;97009.41;7001400;28;20207;-80
2022/11/18 02:48:17;;;;;;;1.30;1.30;;;;;;;14.08;61.32;97002.06;7004010;28;20324;-80
2022/11/18 02:51:39;;;;;;;1.37;1.27;;;;;;;13.86;61.59;97006.97;7015860;28;20216;-80
2022/11/18 02:55:02;;;;;;;1.70;1.40;;;;;;;14.14;61.12;97014.53;7009906;28;20250;-80
2022/11/18 02:58:25;;;;;;;1.30;1.17;;;;;;;14.10;60.17;96973.63;7010858;28;20241;-80
2022/11/18 03:01:47;;;;;;;1.20;1.20;;;;;;;14.36;60.29;97015.13;7021491;28;20221;-80
2022/11/18 03:05:16;;;;;;;1.10;1.10;;;;;;;14.14;60.56;97028.09;7009982;28;20217;-80
2022/11/18 03:08:41;;;;;;;3.47;1.33;;;;;;;13.69;62.37;97012.59;7012962;28;20300;-80
2022/11/18 03:12:11;;;;;;;1.47;1.37;;;;;;;13.67;62.20;97041.03;7010826;28;20241;-80
2022/11/18 03:15:36;;;;;;;2.10;1.40;;;;;;;13.44;63.64;97038.78;6988004;28;20640;-80
2022/11/18 03:19:02;;;;;;;1.60;1.50;;;;;;;12.73;65.06;96994.34;6978268;28;20266;-80
2022/11/18 03:22:28;;;;;;;1.97;1.50;;;;;;;13.60;63.61;97033.19;6977945;28;20344;-80
2022/11/18 03:25:52;;;;;;;2.53;1.53;;;;;;;13.75;63.18;97054.06;6989047;28;20268;-80
2022/11/18 03:29:24;;;;;;;1.53;1.43;;;;;;;14.19;62.22;97058.78;7021564;28;20322;-80
2022/11/18 03:32:49;;;;;;;1.50;1.40;;;;;;;13.99;62.07;97069.53;6998001;28;20214;-80
2022/11/18 03:36:12;;;;;;;1.60;1.50;;;;;;;13.60;63.36;97070.25;6982048;28;20222;-80
2022/11/18 03:39:37;;;;;;;4.17;1.73;;;;;;;13.52;63.76;97065.38;6979212;28;20782;-79
2022/11/18 03:43:04;;;;;;;1.60;1.50;;;;;;;13.78;63.26;97096.84;6977853;28;20294;-80
2022/11/18 03:46:28;;;;;;;2.17;2.07;;;;;;;13.74;63.17;97093.88;6977003;28;20280;-80
2022/11/18 03:49:53;;;;;;;1.90;1.70;;;;;;;13.79;63.54;97102.00;6977979;28;20306;-80
2022/11/18 03:53:15;;;;;;;2.00;1.80;;;;;;;13.78;63.93;97113.09;6977333;28;20269;-80
2022/11/18 03:56:41;;;;;;;2.33;1.67;;;;;;;13.99;63.04;97114.78;6992280;28;20312;-80
2022/11/18 04:00:06;;;;;;;2.37;2.10;;;;;;;14.00;63.05;97111.84;7004419;28;20300;-80
2022/11/18 04:03:28;;;;;;;1.73;1.63;;;;;;;13.73;63.32;97118.50;7004117;28;20399;-80
2022/11/18 04:06:51;;;;;;;1.80;1.70;;;;;;;13.89;63.18;97114.75;7004157;28;20230;-80
2022/11/18 04:10:14;;;;;;;3.10;1.90;;;;;;;13.86;62.95;97134.28;7004233;28;20340;-80
2022/11/18 04:13:39;;;;;;;2.60;1.60;;;;;;;13.43;62.99;97116.50;7004774;28;20296;-80
2022/11/18 04:17:00;;;;;;;1.70;1.60;;;;;;;13.74;63.06;97137.19;7003919;28;20275;-80
2022/11/18 04:20:22;;;;;;;2.00;1.80;;;;;;;13.82;62.75;97127.75;7008892;28;20262;-80
2022/11/18 04:23:44;;;;;;;3.57;1.93;;;;;;;13.49;63.19;97137.09;7005048;28;20263;-80
2022/11/18 04:27:06;;;;;;;1.70;1.60;;;;;;;13.84;62.85;97139.94;7003454;28;20367;-79
2022/11/18 04:30:32;;;;;;;3.33;1.60;;;;;;;13.87;62.61;97144.03;7004945;28;20213;-79
2022/11/18 04:37:39;;;;;;;1.60;1.50;;;;;;;13.13;64.13;97137.16;7011987;28;20309;-80
2022/11/18 04:41:00;;;;;;;1.60;1.50;;;;;;;13.48;63.26;97159.00;7005412;28;20343;-80
2022/11/18 04:44:22;;;;;;;1.57;1.47;;;;;;;13.61;63.00;97145.81;7003439;28;20290;-79
2022/11/18 04:47:45;;;;;;;1.67;1.57;;;;;;;13.75;62.44;97138.81;7003332;28;20332;-80
2022/11/18 04:51:06;;;;;;;2.60;1.70;;;;;;;13.73;62.68;97164.53;7003564;28;20268;-80
2022/11/18 04:54:28;;;;;;;1.57;1.50;;;;;;;13.61;63.04;97162.06;7003207;28;20259;-79
2022/11/18 04:57:55;;;;;;;10.37;4.87;;;;;;;13.87;62.31;97168.41;7004752;28;20283;-80
2022/11/18 05:01:17;;;;;;;4.70;3.33;;;;;;;14.17;61.34;97169.28;7003185;28;20691;-80
2022/11/18 05:04:40;;;;;;;2.87;1.30;;;;;;;14.21;60.92;97169.63;7002667;28;20666;-80
2022/11/18 05:08:01;;;;;;;2.00;1.50;;;;;;;14.28;60.57;97181.81;6974234;28;20387;-80
2022/11/18 05:15:02;;;;;;;1.30;1.20;;;;;;;14.24;59.01;97172.63;6975365;28;20186;-80
2022/11/18 05:26:05;;;;;;;1.30;1.30;;;;;;;13.13;59.91;97134.44;7023310;28;20209;-80
2022/11/18 05:29:27;;;;;;;1.27;1.17;;;;;;;13.29;59.85;97193.00;7025574;28;20206;-80
2022/11/18 05:32:49;;;;;;;1.60;1.50;;;;;;;13.26;60.65;97199.75;7020432;28;20205;-81
2022/11/18 05:36:16;;;;;;;1.20;1.20;;;;;;;13.12;60.62;97170.72;7026162;28;20225;-81
2022/11/18 05:39:40;;;;;;;1.53;1.43;;;;;;;12.70;61.62;97188.75;7028492;28;20221;-81
2022/11/18 05:43:13;;;;;;;1.73;1.63;;;;;;;13.16;60.84;97205.09;7015702;28;20206;-80
2022/11/18 05:46:35;;;;;;;1.40;1.30;;;;;;;13.72;59.68;97208.94;7001068;28;20362;-81
2022/11/18 05:49:56;;;;;;;2.30;2.10;;;;;;;13.25;60.63;97203.53;6974213;28;20266;-80
2022/11/18 05:53:19;;;;;;;1.70;1.60;;;;;;;13.70;60.08;97219.25;6974379;28;20206;-80
2022/11/18 05:56:43;;;;;;;1.77;1.67;;;;;;;13.35;60.89;97211.75;6987023;28;20313;-80
2022/11/18 06:00:06;;;;;;;1.70;1.60;;;;;;;13.68;59.76;97234.94;7000663;28;20206;-81
2022/11/18 06:03:29;;;;;;;2.80;2.10;;;;;;;13.29;60.66;97229.00;7004255;28;20357;-81
2022/11/18 06:06:52;;;;;;;2.40;2.00;;;;;;;13.37;60.48;97220.41;7000919;28;20313;-81
2022/11/18 06:10:17;;;;;;;1.90;1.60;;;;;;;13.44;60.20;97231.00;7002007;28;20312;-81
2022/11/18 06:13:47;;;;;;;1.70;1.60;;;;;;;13.74;59.10;97228.47;7002354;28;20198;-82
2022/11/18 06:17:11;;;;;;;1.10;1.10;;;;;;;13.56;58.80;97234.31;6999960;28;20263;-82
2022/11/18 06:20:34;;;;;;;1.43;1.33;;;;;;;13.07;59.55;97243.72;6996585;28;20228;-83
2022/11/18 06:23:55;;;;;;;1.30;1.30;;;;;;;13.29;60.32;97244.44;7005801;28;20279;-82
2022/11/18 06:27:17;;;;;;;1.27;1.27;;;;;;;13.43;59.47;97245.59;6999392;28;20286;-81
2022/11/18 06:30:40;;;;;;;1.73;1.63;;;;;;;13.55;58.76;97243.50;7005967;28;20208;-81
2022/11/18 06:34:02;;;;;;;1.30;1.30;;;;;;;13.51;58.75;97258.66;7007364;28;20228;-83
2022/11/18 06:37:23;;;;;;;2.03;1.80;;;;;;;13.27;59.67;97235.78;7006369;28;20221;-83
2022/11/18 06:40:45;;;;;;;1.43;1.40;;;;;;;13.68;59.90;97253.91;7006833;28;20363;-80
2022/11/18 06:44:06;;;;;;;1.30;1.20;;;;;;;13.67;58.80;97265.78;7008572;28;20358;-81
2022/11/18 06:47:29;;;;;;;1.23;1.13;;;;;;;13.68;57.77;97234.94;7007655;28;20326;-81
2022/11/18 06:50:51;;;;;;;1.23;1.20;;;;;;;13.49;58.08;97271.63;7007388;28;20285;-80
2022/11/18 06:54:13;;;;;;;1.30;1.30;;;;;;;13.60;57.79;97276.03;7007803;28;20205;-80
2022/11/18 06:57:35;;;;;;;1.40;1.30;;;;;;;13.49;58.13;97275.16;7007427;28;20249;-82
2022/11/18 07:00:56;;;;;;;1.80;1.70;;;;;;;13.36;58.97;97282.91;7008617;28;20238;-82
2022/11/18 07:04:19;;;;;;;1.70;1.60;;;;;;;13.52;58.22;97285.47;7009509;28;20415;-82
2022/11/18 07:07:41;;;;;;;1.50;1.37;;;;;;;12.92;59.46;97276.84;7005517;28;20257;-82
2022/11/18 07:11:04;;;;;;;1.40;1.30;;;;;;;13.30;59.15;97292.91;7009345;28;20546;-82
2022/11/18 07:14:25;;;;;;;2.73;1.37;;;;;;;12.60;59.98;97294.09;7004612;28;20245;-82
2022/11/18 07:17:47;;;;;;;1.30;1.30;;;;;;;12.60;59.98;97296.78;7007957;28;20260;-82
2022/11/18 07:21:11;;;;;;;1.53;1.43;;;;;;;13.06;60.02;97302.44;7006448;28;20217;-82
2022/11/18 07:24:33;;;;;;;2.13;1.93;;;;;;;12.75;60.76;97305.88;7004772;28;20665;-80
2022/11/18 07:27:55;;;;;;;3.10;2.30;;;;;;;12.86;60.92;97304.09;7005267;28;20264;-78
2022/11/18 07:31:18;;;;;;;2.53;2.10;;;;;;;12.59;61.41;97298.69;7004490;28;20304;-79
2022/11/18 07:34:39;;;;;;;4.20;3.07;;;;;;;12.50;62.29;97307.47;7005323;28;20387;-78
2022/11/18 07:38:02;;;;;;;3.20;2.70;;;;;;;12.28;63.50;97336.44;7005617;28;20318;-80
2022/11/18 07:41:25;;;;;;;2.83;2.40;;;;;;;11.58;65.15;97282.25;7005375;28;20615;-79
2022/11/18 07:44:46;;;;;;;2.77;2.50;;;;;;;12.05;66.18;97348.25;7006100;28;20201;-83
2022/11/18 07:48:08;;;;;;;3.10;2.80;;;;;;;11.67;67.66;97359.06;7006469;28;20265;-83
2022/11/18 07:51:32;;;;;;;4.70;3.00;;;;;;;11.84;66.27;97323.94;7005393;28;20244;-79
2022/11/18 07:54:54;;;;;;;2.50;2.30;;;;;;;12.49;65.13;97358.03;7008089;28;20201;-81
2022/11/18 07:58:16;;;;;;;2.73;2.37;;;;;;;12.66;64.64;97349.84;7005643;28;20308;-81
2022/11/18 08:01:37;;;;;;;3.77;2.83;;;;;;;12.32;64.75;97356.44;7005270;28;20264;-81
2022/11/18 08:04:59;;;;;;;4.97;2.80;;;;;;;12.43;64.90;97352.81;7005033;28;20288;-81
2022/11/18 08:08:20;;;;;;;4.57;3.47;;;;;;;12.88;64.38;97374.97;7005825;28;20324;-81
2022/11/18 08:11:43;;;;;;;3.53;3.20;;;;;;;13.19;63.46;97364.25;7006163;28;20811;-81
2022/11/18 08:15:05;;;;;;;3.37;3.07;;;;;;;13.09;63.06;97357.94;7005200;28;20233;-81
2022/11/18 08:18:28;;;;;;;5.20;3.03;;;;;;;12.66;64.05;97360.66;7004526;28;20213;-80
2022/11/18 08:21:50;;;;;;;4.00;2.87;;;;;;;13.27;63.19;97376.50;7003929;28;20666;-80
2022/11/18 08:25:11;;;;;;;3.67;3.23;;;;;;;13.27;63.13;97385.44;7003831;28;20275;-80
2022/11/18 08:28:34;;;;;;;3.40;3.10;;;;;;;13.33;62.83;97397.94;7004085;28;20219;-79
2022/11/18 08:31:56;;;;;;;3.60;3.13;;;;;;;13.42;63.10;97393.69;7005524;28;20257;-80
2022/11/18 08:35:17;;;;;;;3.30;2.57;;;;;;;13.47;63.34;97401.88;7004013;28;20688;-80
2022/11/18 08:38:39;;;;;;;3.30;3.00;;;;;;;13.26;63.67;97402.75;7004978;28;20233;-80
2022/11/18 08:42:00;;;;;;;4.13;3.00;;;;;;;13.59;62.67;97407.09;7004360;28;20235;-80
2022/11/18 08:45:23;;;;;;;3.20;2.90;;;;;;;13.44;63.04;97406.97;7002588;28;20686;-80
2022/11/18 08:48:45;;;;;;;4.57;3.03;;;;;;;13.40;62.99;97403.16;7003795;28;20632;-80
2022/11/18 08:52:06;;;;;;;3.40;3.07;;;;;;;13.64;62.73;97412.56;7003914;28;20581;-80
2022/11/18 08:55:28;;;;;;;2.70;2.50;;;;;;;13.77;62.53;97410.25;7003926;28;20253;-80
2022/11/18 08:58:50;;;;;;;4.30;2.77;;;;;;;13.69;62.25;97420.75;7005077;28;20232;-80
2022/11/18 09:02:15;;;;;;;3.27;2.53;;;;;;;13.65;62.47;97411.50;7004832;28;20307;-80
2022/11/18 09:05:36;;;;;;;2.50;2.30;;;;;;;13.66;62.33;97426.66;7003975;28;20222;-81
2022/11/18 09:08:58;;;;;;;3.30;2.23;;;;;;;13.69;62.25;97431.56;7004582;28;20808;-80
2022/11/18 09:12:20;;;;;;;2.30;2.10;;;;;;;13.82;61.37;97431.97;7005430;28;20209;-77
2022/11/18 09:15:41;;;;;;;2.47;2.07;;;;;;;13.50;61.78;97436.53;7004553;28;20233;-80
2022/11/18 09:19:04;;;;;;;2.40;2.20;;;;;;;13.96;61.75;97427.72;7004721;28;20235;-80
2022/11/18 09:22:27;;;;;;;3.87;2.63;;;;;;;14.06;61.29;97426.97;7005689;28;20939;-80
2022/11/18 09:25:48;;;;;;;5.23;3.67;;;;;;;14.02;61.57;97429.41;7018192;28;20226;-80
2022/11/18 09:29:10;;;;;;;2.50;2.30;;;;;;;14.11;61.90;97443.28;7016876;28;20229;-80
2022/11/18 09:32:32;;;;;;;3.33;3.03;;;;;;;14.38;61.28;97436.72;7003957;28;20292;-80
2022/11/18 09:35:55;;;;;;;1.90;1.80;;;;;;;14.20;61.28;97445.28;7003438;28;20244;-80
2022/11/18 09:39:17;;;;;;;3.47;2.03;;;;;;;13.79;61.76;97450.59;7003975;28;20206;-80
2022/11/18 09:42:49;;;;;;;2.27;2.07;;;;;;;14.05;62.34;97437.00;7003226;28;20287;-80
2022/11/18 09:46:23;;;;;;;3.97;2.07;;;;;;;14.08;61.93;97460.88;7006686;28;20391;-80
2022/11/18 09:49:45;;;;;;;5.70;2.40;;;;;;;14.36;61.69;97457.88;7004023;28;20259;-80
2022/11/18 09:53:18;;;;;;;2.30;1.97;;;;;;;14.40;61.33;97464.38;6985195;28;20296;-80
2022/11/18 09:56:40;;;;;;;4.17;3.13;;;;;;;14.06;61.51;97444.06;7002508;28;20359;-80
2022/11/18 10:00:05;;;;;;;2.27;2.07;;;;;;;14.21;61.41;97465.88;7003724;28;20210;-79
2022/11/18 10:03:29;;;;;;;1.80;1.70;;;;;;;14.40;60.91;97472.50;7002781;28;20248;-80
2022/11/18 10:06:50;;;;;;;2.43;2.23;;;;;;;14.09;61.67;97472.56;6998277;28;20226;-80
2022/11/18 10:10:19;;;;;;;4.00;2.50;;;;;;;14.26;61.21;97463.22;7001623;28;20716;-80
2022/11/18 10:13:50;;;;;;;5.67;3.47;;;;;;;13.85;62.16;97476.66;7002964;28;20220;-79
2022/11/18 10:17:23;;;;;;;2.77;2.57;;;;;;;13.91;63.14;97476.47;7001724;28;20289;-80
2022/11/18 10:20:52;;;;;;;3.13;2.93;;;;;;;14.02;62.60;97486.31;7000669;28;20800;-80
2022/11/18 10:24:18;;;;;;;2.30;2.10;;;;;;;13.95;63.00;97483.00;7003255;28;20225;-80
2022/11/18 10:27:42;;;;;;;3.77;2.17;;;;;;;13.75;63.09;97479.28;7002445;28;20229;-80
2022/11/18 10:31:05;;;;;;;4.60;3.00;;;;;;;14.13;63.08;97477.19;7002446;28;20321;-79
2022/11/18 10:34:27;;;;;;;2.80;2.60;;;;;;;14.06;63.51;97487.44;7002125;28;20244;-79
2022/11/18 10:38:01;;;;;;;4.53;2.67;;;;;;;14.21;62.45;97484.06;7000792;28;20352;-80
2022/11/18 10:41:22;;;;;;;2.30;2.10;;;;;;;13.84;63.77;97502.13;6974587;28;20191;-80
2022/11/18 10:44:45;;;;;;;2.90;1.70;;;;;;;14.15;63.67;97495.91;6974536;28;20283;-80
2022/11/18 10:48:09;;;;;;;1.73;1.43;;;;;;;14.00;63.17;97490.34;6997426;28;20264;-80
2022/11/18 10:51:30;;;;;;;1.80;1.70;;;;;;;14.05;64.01;97498.53;7002192;28;20300;-80
2022/11/18 10:55:16;;;;;;;1.87;1.77;;;;;;;14.29;63.31;97497.13;7001501;28;20206;-79
2022/11/18 10:58:41;;;;;;;2.87;2.13;;;;;;;14.13;63.84;97471.75;7003932;28;20255;-80
2022/11/18 11:02:15;;;;;;;2.87;1.60;;;;;;;14.11;63.95;97473.91;7004871;28;20259;-82
2022/11/18 11:05:37;;;;;;;2.40;1.90;;;;;;;14.71;62.93;97492.50;7003947;28;20254;-81
2022/11/18 11:09:04;;;;;;;3.13;2.13;;;;;;;14.58;62.52;97479.41;7003227;28;20249;-81
2022/11/18 11:12:27;;;;;;;4.73;2.63;;;;;;;14.75;62.74;97490.91;7004612;28;20210;-81
2022/11/18 11:15:51;;;;;;;4.07;2.67;;;;;;;14.98;62.04;97483.16;7008464;28;20271;-81
2022/11/18 11:19:15;;;;;;;3.57;2.37;;;;;;;14.83;62.08;97471.41;6989254;28;20291;-81
2022/11/18 11:22:36;;;;;;;2.27;2.07;;;;;;;15.08;60.70;97477.78;7005691;28;20202;-80
2022/11/18 11:26:01;;;;;;;5.20;2.47;;;;;;;14.78;61.28;97493.91;7010761;28;20624;-82
2022/11/18 11:29:35;;;;;;;2.47;2.27;;;;;;;14.93;61.36;97507.53;7010338;28;20221;-82
2022/11/18 11:33:15;;;;;;;4.03;2.40;;;;;;;15.02;60.97;97499.72;7009479;28;20292;-79
2022/11/18 11:36:45;;;;;;;2.77;2.50;;;;;;;15.14;60.46;97494.88;7007769;28;20225;-83
2022/11/18 11:40:21;;;;;;;3.13;2.07;;;;;;;15.13;60.75;97501.41;7018763;28;20205;-80
2022/11/18 11:43:57;;;;;;;2.57;2.33;;;;;;;15.03;60.83;97490.50;7009339;28;20268;-80
2022/11/18 11:51:10;;;;;;;2.57;2.17;;;;;;;14.33;61.21;97500.97;6999048;28;20200;-80
2022/11/18 11:54:41;;;;;;;3.17;2.10;;;;;;;13.94;62.32;97502.22;6979684;28;20244;-80
2022/11/18 11:58:15;;;;;;;2.20;1.90;;;;;;;14.03;62.33;97511.50;6978771;28;20307;-81
2022/11/18 12:01:43;;;;;;;3.37;2.37;;;;;;;14.61;61.94;97514.97;7007205;28;20331;-81
2022/11/18 12:05:15;;;;;;;3.00;2.70;;;;;;;14.34;62.31;97503.38;7006094;28;20199;-81
2022/11/18 12:08:47;;;;;;;2.70;2.00;;;;;;;14.42;61.27;97515.66;7004703;28;20213;-81
2022/11/18 12:16:03;;;;;;;3.10;1.87;;;;;;;14.77;60.49;97514.00;6993831;28;20256;-80
2022/11/18 12:19:25;;;;;;;2.40;2.20;;;;;;;14.84;59.99;97524.59;6985226;28;20196;-81
2022/11/18 12:23:10;;;;;;;2.60;2.40;;;;;;;14.59;60.16;97519.84;7004051;28;20738;-82
2022/11/18 12:26:34;;;;;;;2.53;2.33;;;;;;;14.73;60.58;97522.91;6976810;28;20227;-81
2022/11/18 12:30:00;;;;;;;3.50;2.37;;;;;;;14.81;60.37;97520.50;6977741;28;20323;-81
2022/11/18 12:33:22;;;;;;;2.20;2.10;;;;;;;14.72;59.94;97470.56;6990797;28;20211;-81
2022/11/18 12:36:43;;;;;;;3.37;2.20;;;;;;;15.33;59.62;97523.25;7002465;28;20221;-81
2022/11/18 12:40:05;;;;;;;3.23;2.60;;;;;;;14.78;60.34;97525.66;7001260;28;20242;-83
2022/11/18 12:44:03;;;;;;;3.97;1.90;;;;;;;14.73;59.61;97531.03;7005575;28;20227;-82
2022/11/18 12:47:59;;;;;;;2.10;1.73;;;;;;;14.32;59.17;97532.66;7005446;28;20221;-83
2022/11/18 12:51:48;;;;;;;1.90;1.70;;;;;;;14.39;58.54;97535.97;7005573;28;20220;-82
2022/11/18 12:55:13;;;;;;;1.73;1.63;;;;;;;14.70;57.81;97540.50;6991599;28;20208;-82
2022/11/18 12:58:35;;;;;;;5.53;2.10;;;;;;;14.71;56.94;97544.88;7005720;28;20221;-82
2022/11/18 13:02:17;;;;;;;3.83;1.90;;;;;;;14.72;57.72;97541.09;7005346;28;20237;-81
2022/11/18 13:05:40;;;;;;;4.53;2.00;;;;;;;14.82;58.34;97537.63;7004914;28;20253;-82
2022/11/18 13:09:04;;;;;;;2.67;1.63;;;;;;;14.86;56.75;97530.59;7004749;28;20706;-82
2022/11/18 13:12:27;;;;;;;3.37;1.90;;;;;;;14.58;56.69;97526.31;7004277;28;20237;-82
2022/11/18 13:19:27;;;;;;;2.87;1.93;;;;;;;15.30;56.70;97548.16;7004137;28;20695;-82
2022/11/18 13:26:32;;;;;;;7.30;2.60;;;;;;;14.56;58.00;97552.06;7004328;28;20217;-82
2022/11/18 13:30:01;;;;;;;3.10;2.40;;;;;;;14.51;58.59;97543.94;7003548;28;20301;-82
2022/11/18 13:33:24;;;;;;;3.63;2.20;;;;;;;14.80;57.63;97550.63;7004701;28;20194;-83
2022/11/18 13:36:47;;;;;;;3.30;2.13;;;;;;;14.76;57.41;97549.50;7003535;28;20705;-83
2022/11/18 13:40:19;;;;;;;2.97;2.60;;;;;;;14.80;57.50;97551.44;7004215;28;20210;-83
2022/11/18 13:43:40;;;;;;;2.50;1.90;;;;;;;14.59;56.74;97502.75;7003451;28;20208;-82
2022/11/18 13:47:07;;;;;;;4.63;2.30;;;;;;;14.66;56.86;97549.44;7003641;28;20298;-81
2022/11/18 13:50:32;;;;;;;2.13;2.03;;;;;;;14.98;56.71;97559.16;7004265;28;20584;-82
2022/11/18 13:53:53;;;;;;;1.93;1.83;;;;;;;15.02;56.69;97554.00;7003784;28;20201;-82
2022/11/18 13:57:20;;;;;;;6.93;2.50;;;;;;;14.89;56.97;97555.31;7004156;28;20283;-82
2022/11/18 14:00:42;;;;;;;3.60;2.30;;;;;;;14.98;56.22;97561.84;7004574;28;20232;-82
2022/11/18 14:04:04;;;;;;;7.47;2.50;;;;;;;15.28;55.87;97556.56;7004822;28;20257;-82
2022/11/18 14:07:29;;;;;;;3.30;2.13;;;;;;;15.04;56.72;97560.00;7005012;28;20267;-82
2022/11/18 14:10:51;;;;;;;4.40;2.20;;;;;;;15.06;56.03;97547.81;7004974;28;20264;-82
2022/11/18 14:14:28;;;;;;;6.57;2.33;;;;;;;14.73;57.49;97567.13;7004886;28;20208;-82
2022/11/18 14:17:54;;;;;;;2.87;2.30;;;;;;;14.50;57.05;97561.25;7002003;28;20262;-81
2022/11/18 14:21:26;;;;;;;3.23;2.07;;;;;;;14.64;56.31;97565.97;7003259;28;20201;-80
2022/11/18 14:24:55;;;;;;;5.30;2.77;;;;;;;14.13;57.18;97501.59;7002039;28;20274;-80
2022/11/18 14:28:21;;;;;;;2.73;2.33;;;;;;;14.54;56.93;97563.22;7001948;28;20236;-82
2022/11/18 14:31:44;;;;;;;2.60;2.20;;;;;;;14.44;57.22;97568.53;7004932;28;20204;-81
2022/11/18 14:35:10;;;;;;;3.17;2.27;;;;;;;14.40;57.23;97583.69;7002618;28;20579;-82
2022/11/18 14:38:46;;;;;;;4.00;2.40;;;;;;;14.88;56.23;97578.09;7003157;28;20209;-82
2022/11/18 14:42:11;;;;;;;4.83;2.40;;;;;;;14.96;55.99;97585.75;7002892;28;20212;-82
2022/11/18 14:45:33;;;;;;;6.07;2.40;;;;;;;14.66;56.39;97588.25;7002003;28;20256;-82
2022/11/18 14:48:56;;;;;;;2.60;2.27;;;;;;;14.16;55.80;97552.53;7004103;28;20319;-82
2022/11/18 14:52:17;;;;;;;5.97;2.20;;;;;;;14.65;55.10;97586.63;7007752;28;20274;-82
2022/11/18 14:55:39;;;;;;;4.20;2.60;;;;;;;14.63;54.71;97594.19;7007989;28;20272;-82
2022/11/18 14:59:00;;;;;;;4.60;2.20;;;;;;;14.27;54.79;97602.31;7008952;28;20286;-82
2022/11/18 15:02:22;;;;;;;2.30;2.10;;;;;;;14.20;55.14;97604.38;7009009;28;20233;-83
2022/11/18 15:05:45;;;;;;;2.43;2.23;;;;;;;14.01;55.94;97582.22;7008108;28;20233;-82
2022/11/18 15:09:07;;;;;;;6.40;2.40;;;;;;;14.34;54.77;97606.41;7007889;28;20320;-81
2022/11/18 15:12:29;;;;;;;4.43;2.23;;;;;;;14.12;55.31;97594.81;7009678;28;20235;-82
2022/11/18 15:15:50;;;;;;;4.63;2.47;;;;;;;14.35;55.07;97597.22;7007543;28;20724;-82
2022/11/18 15:19:14;;;;;;;4.53;2.70;;;;;;;14.33;55.79;97604.78;7008392;28;20198;-82
2022/11/18 15:22:37;;;;;;;5.47;2.80;;;;;;;14.64;55.19;97603.94;7008859;28;20205;-82
2022/11/18 15:25:59;;;;;;;4.80;2.90;;;;;;;14.93;54.92;97626.16;7006339;28;20257;-83
2022/11/18 15:29:22;;;;;;;2.60;2.40;;;;;;;14.95;54.12;97616.69;6998251;28;20431;-82
2022/11/18 15:32:44;;;;;;;4.57;2.30;;;;;;;14.94;53.81;97615.06;7009038;28;20242;-82
2022/11/18 15:36:10;;;;;;;6.57;2.60;;;;;;;15.13;53.79;97634.41;7008667;28;20222;-83
2022/11/18 15:39:33;;;;;;;5.57;3.03;;;;;;;14.97;54.37;97640.81;7007479;28;20270;-82
2022/11/18 15:42:54;;;;;;;11.00;3.73;;;;;;;15.02;53.94;97646.28;6996225;28;20287;-82
2022/11/18 15:46:18;;;;;;;7.53;4.20;;;;;;;14.99;53.95;97652.25;7004083;28;20670;-82
2022/11/18 15:49:42;;;;;;;6.43;4.57;;;;;;;14.95;54.18;97605.00;7007155;28;20227;-83
2022/11/18 15:53:03;;;;;;;8.13;4.60;;;;;;;15.08;53.92;97639.81;7005596;28;20214;-83
2022/11/18 15:56:28;;;;;;;5.77;4.03;;;;;;;15.03;54.36;97651.47;7006977;28;20724;-84
2022/11/18 15:59:50;;;;;;;3.40;2.77;;;;;;;14.84;56.17;97644.81;7005276;28;20202;-81
2022/11/18 16:03:11;;;;;;;4.77;2.63;;;;;;;14.99;55.66;97649.53;7002243;28;20214;-80
2022/11/18 16:06:33;;;;;;;7.73;3.27;;;;;;;14.17;56.09;97638.22;6999684;28;20379;-84
2022/11/18 16:13:35;;;;;;;9.70;7.50;;;;;;;14.18;56.64;97625.47;7004932;28;20225;-83
2022/11/18 16:16:57;;;;;;;6.33;5.10;;;;;;;14.54;55.51;97641.03;7001466;28;20290;-85
2022/11/18 16:20:18;;;;;;;6.80;5.70;;;;;;;14.92;55.43;97652.47;7007661;28;20240;-84
2022/11/18 16:23:40;;;;;;;4.37;3.47;;;;;;;14.72;55.04;97655.03;7007329;28;20189;-85
2022/11/18 16:27:01;;;;;;;6.50;3.37;;;;;;;15.07;54.86;97666.16;7006776;28;20308;-82
2022/11/18 16:34:07;;;;;;;9.53;4.30;;;;;;;14.87;55.05;97619.84;7006694;28;20179;-85
2022/11/18 16:37:29;;;;;;;5.40;4.90;;;;;;;14.76;55.23;97641.75;7009139;28;20289;-85
2022/11/18 16:40:55;;;;;;;7.70;4.90;;;;;;;14.82;55.36;97665.16;7007344;28;20247;-83
2022/11/18 16:44:17;;;;;;;8.23;4.70;;;;;;;14.73;55.87;97656.66;7006468;28;20273;-82
2022/11/18 16:47:40;;;;;;;4.93;4.17;;;;;;;14.67;55.24;97670.44;7006243;28;20230;-83